Charles Town, WV (25414)

01:58 PM EDT die 28o April, anno 2017 (GMT -0400)
American Public University System WeatherSTEM | | Change Station

Elev 511 ft 39.29 °N, 77.86 °W | Updated 1 minute ago

Serena
Serena
81.6 °F
Feels Like 81 °F
N
4.0
Ventus Variabilis Ventus from Inter Austrum et Zephyrum

Hodie
High -- | Low -- °F
--% Chance of Precip.
Yesterday
High -- | Low -- °F
Precip. -- in
Pressio 30.01 in
Visibilitas 10.0 milia passuum
Clouds Serena
Index Caloris 81 °F
Frigus in quo Ros apparet 56 °F
Umor 42%
Rainfall 0.00 in
Snow Depth Not available.
6:16 AM 8:02 PM
Waxing Crescent, 7% visible
METAR KMRB 281753Z 20006KT 10SM CLR 26/13 A3003 RMK AO2 SLP163 T02610133 10267 20183 58007
Pressio 30.01 in
Visibilitas 10.0 milia passuum
Clouds Serena
Index Caloris 81 °F
Frigus in quo Ros apparet 56 °F
Umor 42%
Rainfall 0.00 in
Snow Depth Not available.
6:16 AM 8:02 PM
Waxing Crescent, 7% visible
METAR KMRB 281753Z 20006KT 10SM CLR 26/13 A3003 RMK AO2 SLP163 T02610133 10267 20183 58007

Get Severe Weather Alerts

Thanks for signing up!

Be on the lookout for a verification email in your inbox.

You'll start receiving the daily forecast at 8 AM.

×

10-Day Weather Forecast

Almanac

Astronomy

Apr. 28, 2017 Rise Set
Actual Time
Civil Twilight
Nautical Twilight
Astronomical Twilight
Moon
Length Of Visible Light
Length of Day
Tomorrow will be .
, % of the Moon is Illuminated

Today's Extremes

State Highs State Lows

Community

WunderPhotos

WunderBlog® & News

Nearby

Air Quality

  Air Quality AQ Index Pollutant
Not available.

Snow Depth

Station Depth Elevation

Earthquake Activity

City Distance Mag. Time & Date
Minimum magnitude displayed is 2.5.

Coastal Water Temperatures

Locus Calor

Stations

Nearby Weather Stations

Station Location Temp Frigus Venti Frigus in quo Ros apparet Umor Ventus Precip. Elev Renovata Type
                   

Watches & Warnings

There are currently no watches in effect.